Time;durP1;ratioP1;P1;durP2;ratioP2;P2;SDS_P1;SDS_P2;PMS_P1;PMS_P2;Temp;Humidity;BMP_temperature;BMP_pressure;BME280_temperature;BME280_humidity;BME280_pressure;Samples;Min_cycle;Max_cycle;Signal;HPM_P1;HPM_P2
2022/06/11 00:00:11;;;;;;;8.00;7.40;;;;;;;;;;5136159;27;20205;-95
2022/06/11 00:02:39;;;;;;;8.27;7.67;;;;;;;;;;5136096;27;20202;-95
2022/06/11 00:05:07;;;;;;;7.67;7.07;;;;;;;;;;5135225;27;20496;-95
2022/06/11 00:07:35;;;;;;;8.17;7.47;;;;;;;;;;5135861;27;20304;-94
2022/06/11 00:10:04;;;;;;;8.43;7.83;;;;;;;;;;5135958;27;20274;-95
2022/06/11 00:12:32;;;;;;;7.67;7.07;;;;;;;;;;5136149;27;20202;-94
2022/06/11 00:15:01;;;;;;;8.37;7.73;;;;;;;;;;5136150;27;20627;-94
2022/06/11 00:17:28;;;;;;;8.63;8.03;;;;;;;;;;5136316;27;20217;-94
2022/06/11 00:19:56;;;;;;;8.93;8.13;;;;;;;;;;5136043;27;20274;-95
2022/06/11 00:22:24;;;;;;;7.93;7.13;;;;;;;;;;5135952;27;20822;-94
2022/06/11 00:24:52;;;;;;;7.93;7.23;;;;;;;;;;5136103;27;20289;-95
2022/06/11 00:27:20;;;;;;;8.13;7.53;;;;;;;;;;5135815;27;20224;-94
2022/06/11 00:29:48;;;;;;;8.90;7.67;;;;;;;;;;5135809;27;20194;-95
2022/06/11 00:32:17;;;;;;;8.90;7.77;;;;;;;;;;5136036;27;20285;-95
2022/06/11 00:34:46;;;;;;;9.03;8.33;;;;;;;;;;5090974;27;20582;-94
2022/06/11 00:37:16;;;;;;;8.17;7.57;;;;;;;;;;5050774;28;20192;-95
2022/06/11 00:39:44;;;;;;;8.73;8.00;;;;;;;;;;5051713;28;20664;-95
2022/06/11 00:42:23;;;;;;;8.97;8.20;;;;;;;;;;5053051;28;20234;-93
2022/06/11 00:44:50;;;;;;;7.60;6.90;;;;;;;;;;5053284;28;20578;-94
2022/06/11 00:47:22;;;;;;;8.37;7.40;;;;;;;;;;5054016;28;20665;-95
2022/06/11 00:49:52;;;;;;;9.27;8.47;;;;;;;;;;5056088;28;20222;-94
2022/06/11 00:52:26;;;;;;;8.80;8.00;;;;;;;;;;5056717;28;20227;-95
2022/06/11 00:54:59;;;;;;;9.00;8.30;;;;;;;;;;5054232;28;20646;-95
2022/06/11 00:57:29;;;;;;;8.43;7.70;;;;;;;;;;5052537;28;20261;-95
2022/06/11 00:59:59;;;;;;;8.10;7.40;;;;;;;;;;5055304;28;20209;-95
2022/06/11 01:02:28;;;;;;;9.17;8.43;;;;;;;;;;5055562;28;20196;-95
2022/06/11 01:04:57;;;;;;;8.73;8.13;;;;;;;;;;5057240;28;20230;-95
2022/06/11 01:07:49;;;;;;;9.00;8.30;;;;;;;;;;5057828;28;20612;-96
2022/06/11 01:10:31;;;;;;;9.00;8.20;;;;;;;;;;5056325;27;20216;-96
2022/06/11 01:13:06;;;;;;;8.47;7.87;;;;;;;;;;5054008;28;20208;-95
2022/06/11 01:15:38;;;;;;;9.20;8.43;;;;;;;;;;5053044;28;20214;-95
2022/06/11 01:18:19;;;;;;;8.57;7.87;;;;;;;;;;5052154;27;20257;-95
2022/06/11 01:20:51;;;;;;;7.60;7.10;;;;;;;;;;5050782;28;20205;-94
2022/06/11 01:24:02;;;;;;;8.27;7.67;;;;;;;;;;5051923;28;20200;-93
2022/06/11 01:26:47;;;;;;;8.20;7.50;;;;;;;;;;5091856;28;20223;-95
2022/06/11 01:29:40;;;;;;;8.37;7.77;;;;;;;;;;5092004;28;20196;-93
2022/06/11 01:32:12;;;;;;;8.50;7.80;;;;;;;;;;5054613;28;20205;-93
2022/06/11 01:34:43;;;;;;;7.53;7.03;;;;;;;;;;5050158;28;20196;-94
2022/06/11 01:37:15;;;;;;;7.33;6.80;;;;;;;;;;5050155;28;20236;-93
2022/06/11 01:39:48;;;;;;;7.40;6.80;;;;;;;;;;5050009;28;20186;-95
2022/06/11 01:42:20;;;;;;;7.93;7.23;;;;;;;;;;5050429;27;20218;-94
2022/06/11 01:45:01;;;;;;;8.33;7.63;;;;;;;;;;5050134;28;20249;-93
2022/06/11 01:47:28;;;;;;;7.53;6.87;;;;;;;;;;5050381;28;20265;-93
2022/06/11 01:49:56;;;;;;;8.47;7.73;;;;;;;;;;5049738;28;20659;-94
2022/06/11 01:52:43;;;;;;;8.73;7.67;;;;;;;;;;5050080;28;20201;-92
2022/06/11 01:55:14;;;;;;;8.67;7.87;;;;;;;;;;5049974;28;20192;-93
2022/06/11 01:58:13;;;;;;;8.23;7.53;;;;;;;;;;5049963;28;20223;-94
2022/06/11 02:00:46;;;;;;;7.70;7.10;;;;;;;;;;5049745;27;20634;-94
2022/06/11 02:03:29;;;;;;;7.57;7.00;;;;;;;;;;5049844;28;20209;-93
2022/06/11 02:06:18;;;;;;;7.60;7.00;;;;;;;;;;5049953;28;20209;-93
2022/06/11 02:08:55;;;;;;;7.17;6.67;;;;;;;;;;5050071;27;20240;-94
2022/06/11 02:11:30;;;;;;;7.00;6.40;;;;;;;;;;5049781;27;20221;-94
2022/06/11 02:14:04;;;;;;;6.13;5.73;;;;;;;;;;5050124;28;20191;-94
2022/06/11 02:16:34;;;;;;;7.67;7.00;;;;;;;;;;5050009;28;20231;-93
2022/06/11 02:19:03;;;;;;;6.70;6.30;;;;;;;;;;5049784;28;20224;-94
2022/06/11 02:21:34;;;;;;;6.23;5.83;;;;;;;;;;5049557;28;20196;-94
2022/06/11 02:24:05;;;;;;;6.87;6.37;;;;;;;;;;5049643;28;20185;-94
2022/06/11 02:26:35;;;;;;;7.80;7.10;;;;;;;;;;5049550;28;20185;-94
2022/06/11 02:29:03;;;;;;;7.23;6.63;;;;;;;;;;5049709;28;20687;-94
2022/06/11 02:31:44;;;;;;;7.03;6.50;;;;;;;;;;5049541;28;20671;-95
2022/06/11 02:34:15;;;;;;;7.77;7.07;;;;;;;;;;5049646;28;20200;-94
2022/06/11 02:36:56;;;;;;;7.03;6.53;;;;;;;;;;5049682;28;20284;-94
2022/06/11 02:39:24;;;;;;;7.20;6.60;;;;;;;;;;5049456;27;20255;-94
2022/06/11 02:41:53;;;;;;;7.87;7.27;;;;;;;;;;5049314;28;20200;-93
2022/06/11 02:44:20;;;;;;;7.37;6.77;;;;;;;;;;5047214;28;20258;-92
2022/06/11 02:46:50;;;;;;;7.10;6.57;;;;;;;;;;5049448;28;20322;-93
2022/06/11 02:49:20;;;;;;;6.93;6.43;;;;;;;;;;5049246;28;20691;-92
2022/06/11 02:51:49;;;;;;;7.03;6.40;;;;;;;;;;5049315;28;20625;-92
2022/06/11 02:54:17;;;;;;;7.07;6.50;;;;;;;;;;5049342;28;20225;-93
2022/06/11 02:56:45;;;;;;;7.60;7.07;;;;;;;;;;5049429;28;20284;-91
2022/06/11 02:59:12;;;;;;;8.07;7.47;;;;;;;;;;5049031;28;20200;-93
2022/06/11 03:01:40;;;;;;;7.90;7.13;;;;;;;;;;5050715;28;20283;-91
2022/06/11 03:04:09;;;;;;;7.70;7.10;;;;;;;;;;5052480;28;20336;-93
2022/06/11 03:06:41;;;;;;;6.90;6.40;;;;;;;;;;5052385;28;20223;-93
2022/06/11 03:09:09;;;;;;;7.50;6.90;;;;;;;;;;5051976;28;20318;-93
2022/06/11 03:11:37;;;;;;;7.13;6.63;;;;;;;;;;5052538;28;20210;-91
2022/06/11 03:14:04;;;;;;;7.43;6.83;;;;;;;;;;5052463;28;20237;-92
2022/06/11 03:16:32;;;;;;;7.70;6.90;;;;;;;;;;5052447;28;20233;-92
2022/06/11 03:19:00;;;;;;;7.37;6.87;;;;;;;;;;5051939;28;20208;-94
2022/06/11 03:21:29;;;;;;;8.27;7.60;;;;;;;;;;5052234;28;20731;-91
2022/06/11 03:23:56;;;;;;;6.67;6.17;;;;;;;;;;5052185;28;20234;-90
2022/06/11 03:26:24;;;;;;;6.77;6.37;;;;;;;;;;5051862;28;20230;-91
2022/06/11 03:28:51;;;;;;;6.60;6.07;;;;;;;;;;5052396;28;20574;-91
2022/06/11 03:31:19;;;;;;;6.07;5.57;;;;;;;;;;5052123;28;20206;-91
2022/06/11 03:33:47;;;;;;;7.27;6.60;;;;;;;;;;5052069;28;20204;-92
2022/06/11 03:36:16;;;;;;;6.10;5.60;;;;;;;;;;5051989;28;20754;-92
2022/06/11 03:38:46;;;;;;;6.20;5.80;;;;;;;;;;5052010;28;20730;-90
2022/06/11 03:41:15;;;;;;;5.70;5.30;;;;;;;;;;5052178;28;20195;-93
2022/06/11 03:43:43;;;;;;;5.40;5.00;;;;;;;;;;5052229;28;20223;-93
2022/06/11 03:46:10;;;;;;;6.33;5.83;;;;;;;;;;5051538;28;20244;-93
2022/06/11 03:48:38;;;;;;;6.00;5.60;;;;;;;;;;5051757;28;20260;-92
2022/06/11 03:51:07;;;;;;;5.67;5.27;;;;;;;;;;5051758;28;20200;-92
2022/06/11 03:53:34;;;;;;;5.20;4.90;;;;;;;;;;5051741;28;20196;-93
2022/06/11 03:56:05;;;;;;;5.70;5.20;;;;;;;;;;5051557;28;20639;-93
2022/06/11 03:58:33;;;;;;;6.27;5.87;;;;;;;;;;5051743;28;20199;-92
2022/06/11 04:01:19;;;;;;;6.00;5.60;;;;;;;;;;5051604;28;20201;-93
2022/06/11 04:03:53;;;;;;;5.57;5.17;;;;;;;;;;5051745;28;20207;-94
2022/06/11 04:06:25;;;;;;;5.63;5.17;;;;;;;;;;5051555;28;20209;-92
2022/06/11 04:08:52;;;;;;;6.17;5.77;;;;;;;;;;5051040;28;20238;-93
2022/06/11 04:11:21;;;;;;;5.53;5.03;;;;;;;;;;5051594;28;20285;-93
2022/06/11 04:13:49;;;;;;;6.20;5.70;;;;;;;;;;5051645;28;20209;-94
2022/06/11 04:16:23;;;;;;;6.07;5.57;;;;;;;;;;5051323;28;20230;-95
2022/06/11 04:18:51;;;;;;;6.00;5.50;;;;;;;;;;5050631;28;20187;-94
2022/06/11 04:21:22;;;;;;;5.73;5.30;;;;;;;;;;5050690;28;20293;-93
2022/06/11 04:23:52;;;;;;;6.60;6.20;;;;;;;;;;5051350;28;20254;-94
2022/06/11 04:26:24;;;;;;;6.23;5.70;;;;;;;;;;5051571;28;20290;-95
2022/06/11 04:28:52;;;;;;;6.30;5.90;;;;;;;;;;5051499;28;20203;-95
2022/06/11 04:31:35;;;;;;;6.77;6.37;;;;;;;;;;5051443;28;20744;-95
2022/06/11 04:34:10;;;;;;;6.60;6.00;;;;;;;;;;5054536;28;20199;-95
2022/06/11 04:36:37;;;;;;;7.27;6.60;;;;;;;;;;5031572;28;20585;-94
2022/06/11 04:39:06;;;;;;;7.43;6.83;;;;;;;;;;5031339;28;20661;-95
2022/06/11 04:41:35;;;;;;;6.40;5.90;;;;;;;;;;5031732;28;20231;-95
2022/06/11 04:44:03;;;;;;;7.40;6.67;;;;;;;;;;5031303;28;20251;-95
2022/06/11 04:46:31;;;;;;;6.10;5.63;;;;;;;;;;5030982;28;20226;-95
2022/06/11 04:48:59;;;;;;;8.07;6.33;;;;;;;;;;5030984;28;20204;-95
2022/06/11 04:51:26;;;;;;;7.40;6.80;;;;;;;;;;5031191;28;20201;-94
2022/06/11 04:53:54;;;;;;;6.87;6.37;;;;;;;;;;5030762;28;20655;-94
2022/06/11 04:56:24;;;;;;;6.27;5.87;;;;;;;;;;5030976;28;20210;-94
2022/06/11 04:58:54;;;;;;;5.87;5.47;;;;;;;;;;5030944;28;20204;-94
2022/06/11 05:01:21;;;;;;;6.30;5.80;;;;;;;;;;5031018;28;20196;-94
2022/06/11 05:03:49;;;;;;;6.20;5.70;;;;;;;;;;5030874;28;20258;-94
2022/06/11 05:06:19;;;;;;;6.47;5.97;;;;;;;;;;5030898;28;20306;-94
2022/06/11 05:08:46;;;;;;;6.03;5.50;;;;;;;;;;5030952;28;20237;-95
2022/06/11 05:11:14;;;;;;;6.23;5.83;;;;;;;;;;5031261;28;20209;-93
2022/06/11 05:13:41;;;;;;;6.83;6.23;;;;;;;;;;5031410;28;20227;-94
2022/06/11 05:16:13;;;;;;;7.50;6.90;;;;;;;;;;5031336;28;20198;-94
2022/06/11 05:18:41;;;;;;;7.27;6.20;;;;;;;;;;5030848;28;20292;-94
2022/06/11 05:21:08;;;;;;;6.63;6.13;;;;;;;;;;5030824;28;20214;-95
2022/06/11 05:23:39;;;;;;;6.93;6.40;;;;;;;;;;5030509;28;20254;-94
2022/06/11 05:26:08;;;;;;;6.43;5.83;;;;;;;;;;5031775;28;20771;-94
2022/06/11 05:28:37;;;;;;;6.40;5.87;;;;;;;;;;5032173;28;20212;-95
2022/06/11 05:31:04;;;;;;;8.07;7.27;;;;;;;;;;5031635;28;20200;-93
2022/06/11 05:33:33;;;;;;;6.90;6.23;;;;;;;;;;5031456;28;20198;-93
2022/06/11 05:36:01;;;;;;;7.10;6.53;;;;;;;;;;5030832;28;20216;-94
2022/06/11 05:38:29;;;;;;;7.13;6.63;;;;;;;;;;5030467;28;20615;-94
2022/06/11 05:40:57;;;;;;;7.07;6.47;;;;;;;;;;5030407;28;20209;-94
2022/06/11 05:43:26;;;;;;;6.60;6.13;;;;;;;;;;5030203;28;20249;-94
2022/06/11 05:45:57;;;;;;;7.20;6.60;;;;;;;;;;5030122;28;20222;-94
2022/06/11 05:48:28;;;;;;;6.27;5.87;;;;;;;;;;5030217;28;20209;-94
2022/06/11 05:50:58;;;;;;;7.10;6.50;;;;;;;;;;5030250;28;20202;-94
2022/06/11 05:53:27;;;;;;;6.67;6.17;;;;;;;;;;5030197;28;20288;-93
2022/06/11 05:55:56;;;;;;;7.40;6.70;;;;;;;;;;5029978;28;20198;-93
2022/06/11 05:58:27;;;;;;;6.17;5.77;;;;;;;;;;5030082;28;20759;-95
2022/06/11 06:00:54;;;;;;;7.00;6.33;;;;;;;;;;5030335;28;20198;-94
2022/06/11 06:03:21;;;;;;;6.23;5.83;;;;;;;;;;5027407;28;20708;-89
2022/06/11 06:05:49;;;;;;;6.73;6.23;;;;;;;;;;5030014;28;20228;-90
2022/06/11 06:08:18;;;;;;;6.97;6.37;;;;;;;;;;5029768;28;20289;-89
2022/06/11 06:10:45;;;;;;;6.57;5.97;;;;;;;;;;5029888;28;20194;-89
2022/06/11 06:15:56;;;;;;;6.47;5.97;;;;;;;;;;5029713;28;20180;-89
2022/06/11 06:18:24;;;;;;;6.17;5.67;;;;;;;;;;5029377;28;20683;-90
2022/06/11 06:20:51;;;;;;;6.07;5.67;;;;;;;;;;5029833;28;20223;-89
2022/06/11 06:23:20;;;;;;;6.47;5.97;;;;;;;;;;5029505;28;20295;-89
2022/06/11 06:25:49;;;;;;;6.07;5.67;;;;;;;;;;5029407;28;20222;-89
2022/06/11 06:28:16;;;;;;;5.90;5.30;;;;;;;;;;5029349;28;20204;-89
2022/06/11 06:30:43;;;;;;;6.00;5.50;;;;;;;;;;5029496;28;20203;-89
2022/06/11 06:33:11;;;;;;;6.27;5.70;;;;;;;;;;5013482;28;20298;-89
2022/06/11 06:35:38;;;;;;;5.67;5.20;;;;;;;;;;5011326;28;20317;-89
2022/06/11 06:38:06;;;;;;;5.43;5.03;;;;;;;;;;5013242;28;20206;-89
2022/06/11 06:40:35;;;;;;;5.13;4.67;;;;;;;;;;5013735;28;20721;-87
2022/06/11 06:43:02;;;;;;;5.33;4.93;;;;;;;;;;5013165;28;20208;-89
2022/06/11 06:45:29;;;;;;;5.23;4.83;;;;;;;;;;5013307;28;20202;-89
2022/06/11 06:47:57;;;;;;;4.90;4.60;;;;;;;;;;5013282;28;20213;-89
2022/06/11 06:50:24;;;;;;;4.67;4.33;;;;;;;;;;5013073;28;20201;-90
2022/06/11 06:52:51;;;;;;;4.87;4.57;;;;;;;;;;5013254;28;20213;-89
2022/06/11 06:55:18;;;;;;;4.80;4.50;;;;;;;;;;5012951;28;20229;-90
2022/06/11 06:57:47;;;;;;;5.00;4.60;;;;;;;;;;5012957;28;20195;-90
2022/06/11 07:00:16;;;;;;;4.77;4.47;;;;;;;;;;5013478;28;20705;-89
2022/06/11 07:02:44;;;;;;;5.17;4.33;;;;;;;;;;5032760;28;20234;-89
2022/06/11 07:05:12;;;;;;;3.90;3.70;;;;;;;;;;5032762;28;20237;-89
2022/06/11 07:07:39;;;;;;;4.37;3.73;;;;;;;;;;5032105;28;20230;-89
2022/06/11 07:10:09;;;;;;;4.97;4.57;;;;;;;;;;5032042;28;20206;-89
2022/06/11 07:12:37;;;;;;;3.70;3.50;;;;;;;;;;5032563;28;20205;-89
2022/06/11 07:15:07;;;;;;;4.20;3.90;;;;;;;;;;5032147;28;20629;-90
2022/06/11 07:17:37;;;;;;;3.77;3.43;;;;;;;;;;5032529;28;20563;-89
2022/06/11 07:20:07;;;;;;;4.20;3.80;;;;;;;;;;5032528;28;20212;-90
2022/06/11 07:22:38;;;;;;;4.40;4.10;;;;;;;;;;5032626;28;20194;-90
2022/06/11 07:25:07;;;;;;;4.40;3.80;;;;;;;;;;5032200;28;20188;-90
2022/06/11 07:27:37;;;;;;;4.67;3.57;;;;;;;;;;5032176;28;20251;-91
2022/06/11 07:30:09;;;;;;;3.33;3.13;;;;;;;;;;5032291;28;20225;-89
2022/06/11 07:32:37;;;;;;;4.30;3.90;;;;;;;;;;5032226;28;20195;-89
2022/06/11 07:35:05;;;;;;;4.13;3.47;;;;;;;;;;5032262;28;20714;-88
2022/06/11 07:37:33;;;;;;;4.17;3.87;;;;;;;;;;5031947;28;20223;-89
2022/06/11 07:40:00;;;;;;;3.50;3.20;;;;;;;;;;5032070;28;20678;-89
2022/06/11 07:42:28;;;;;;;5.60;3.97;;;;;;;;;;5032242;28;20211;-90
2022/06/11 07:44:55;;;;;;;3.57;3.23;;;;;;;;;;5031989;28;20295;-89
2022/06/11 07:50:06;;;;;;;3.33;3.13;;;;;;;;;;5032398;28;20584;-89
2022/06/11 07:52:34;;;;;;;3.87;2.80;;;;;;;;;;5031936;28;20196;-89
2022/06/11 07:55:01;;;;;;;4.30;3.67;;;;;;;;;;5031736;28;20206;-90
2022/06/11 07:57:28;;;;;;;3.57;2.87;;;;;;;;;;5031785;28;20267;-90
2022/06/11 07:59:56;;;;;;;3.23;3.03;;;;;;;;;;5031844;28;20692;-89
2022/06/11 08:02:25;;;;;;;4.87;3.43;;;;;;;;;;5031867;28;20282;-89
2022/06/11 08:04:52;;;;;;;4.57;3.07;;;;;;;;;;5031695;28;20283;-90
2022/06/11 08:07:20;;;;;;;3.17;2.97;;;;;;;;;;5031307;28;20700;-89
2022/06/11 08:09:47;;;;;;;3.70;2.80;;;;;;;;;;5031548;28;20183;-89
2022/06/11 08:12:14;;;;;;;5.03;3.30;;;;;;;;;;5031450;28;20755;-89
2022/06/11 08:14:42;;;;;;;3.20;2.93;;;;;;;;;;5031697;28;20205;-89
2022/06/11 08:17:09;;;;;;;3.40;3.20;;;;;;;;;;5031725;28;20216;-89
2022/06/11 08:19:38;;;;;;;2.90;2.70;;;;;;;;;;5031699;28;20256;-89
2022/06/11 08:22:05;;;;;;;3.27;3.00;;;;;;;;;;5012118;28;20203;-89
2022/06/11 08:24:32;;;;;;;3.07;2.80;;;;;;;;;;5011680;28;20204;-89
2022/06/11 08:26:59;;;;;;;3.50;3.23;;;;;;;;;;5011821;28;20596;-89
2022/06/11 08:29:27;;;;;;;2.97;2.77;;;;;;;;;;5011592;28;20206;-89
2022/06/11 08:31:54;;;;;;;2.97;2.80;;;;;;;;;;5011406;28;20199;-89
2022/06/11 08:34:21;;;;;;;2.90;2.70;;;;;;;;;;5011425;28;20249;-89
2022/06/11 08:36:50;;;;;;;4.90;3.13;;;;;;;;;;5010603;28;20242;-90
2022/06/11 08:39:17;;;;;;;3.87;3.53;;;;;;;;;;5011245;28;20194;-89
2022/06/11 08:41:44;;;;;;;4.53;4.13;;;;;;;;;;5011515;28;20198;-89
2022/06/11 08:44:13;;;;;;;6.07;4.23;;;;;;;;;;5011602;28;20615;-88
2022/06/11 08:46:42;;;;;;;3.80;3.53;;;;;;;;;;5011054;28;20286;-85
2022/06/11 08:49:14;;;;;;;4.03;3.73;;;;;;;;;;5010704;28;20196;-87
2022/06/11 08:51:46;;;;;;;3.70;3.10;;;;;;;;;;5010946;28;20192;-87
2022/06/11 08:54:16;;;;;;;3.40;3.03;;;;;;;;;;5010654;28;20278;-87
2022/06/11 08:56:51;;;;;;;3.43;3.23;;;;;;;;;;5010649;28;20272;-87
2022/06/11 08:59:31;;;;;;;3.70;3.50;;;;;;;;;;5009650;28;20188;-87
2022/06/11 09:02:12;;;;;;;4.00;3.70;;;;;;;;;;5010418;28;20190;-87
2022/06/11 09:04:53;;;;;;;3.57;3.37;;;;;;;;;;5010388;28;20226;-88
2022/06/11 09:07:34;;;;;;;3.73;3.53;;;;;;;;;;5010719;28;20205;-87
2022/06/11 09:10:16;;;;;;;5.10;3.03;;;;;;;;;;5010493;28;20734;-87
2022/06/11 09:13:00;;;;;;;3.13;2.93;;;;;;;;;;5010629;28;20707;-87
2022/06/11 09:15:39;;;;;;;3.77;3.00;;;;;;;;;;5010448;28;20187;-87
2022/06/11 09:18:29;;;;;;;3.00;2.80;;;;;;;;;;5010426;28;20184;-87
2022/06/11 09:21:01;;;;;;;2.50;2.30;;;;;;;;;;5010664;28;20553;-87
2022/06/11 09:23:45;;;;;;;2.50;2.30;;;;;;;;;;5010324;28;20663;-87
2022/06/11 09:26:31;;;;;;;2.57;2.37;;;;;;;;;;5010669;28;20546;-88
2022/06/11 09:29:12;;;;;;;3.10;2.90;;;;;;;;;;5010314;28;20659;-87
2022/06/11 09:32:02;;;;;;;2.40;2.00;;;;;;;;;;5010659;28;20189;-86
2022/06/11 09:34:35;;;;;;;2.30;2.20;;;;;;;;;;5011588;28;20196;-87
2022/06/11 09:37:08;;;;;;;3.40;2.70;;;;;;;;;;5010702;28;20186;-88
2022/06/11 09:39:40;;;;;;;3.77;3.50;;;;;;;;;;5010761;28;20335;-88
2022/06/11 09:42:49;;;;;;;2.87;2.67;;;;;;;;;;5010551;28;20567;-87
2022/06/11 09:45:21;;;;;;;3.17;2.97;;;;;;;;;;5002826;28;20627;-88
2022/06/11 09:48:05;;;;;;;3.20;3.00;;;;;;;;;;5010199;28;20205;-88
2022/06/11 09:50:38;;;;;;;3.30;3.10;;;;;;;;;;5010831;28;20202;-88
2022/06/11 09:53:21;;;;;;;3.20;3.00;;;;;;;;;;5010478;28;20201;-88
2022/06/11 09:55:51;;;;;;;2.53;2.33;;;;;;;;;;5010248;28;20223;-88
2022/06/11 09:58:26;;;;;;;1.83;1.73;;;;;;;;;;5010123;28;20204;-88
2022/06/11 10:00:57;;;;;;;2.00;1.90;;;;;;;;;;5010159;28;20196;-87
2022/06/11 10:03:30;;;;;;;1.70;1.60;;;;;;;;;;5010179;28;20273;-88
2022/06/11 10:06:00;;;;;;;1.80;1.70;;;;;;;;;;5010182;28;20198;-88
2022/06/11 10:08:35;;;;;;;1.40;1.30;;;;;;;;;;5009799;28;20233;-88
2022/06/11 10:11:04;;;;;;;1.97;1.87;;;;;;;;;;5009867;28;20211;-88
2022/06/11 10:13:40;;;;;;;2.10;2.00;;;;;;;;;;5010028;28;20205;-87
2022/06/11 10:16:18;;;;;;;1.70;1.60;;;;;;;;;;5009553;28;20190;-88
2022/06/11 10:18:47;;;;;;;1.50;1.40;;;;;;;;;;5010387;28;20224;-88
2022/06/11 10:21:18;;;;;;;1.63;1.53;;;;;;;;;;5010062;28;20200;-89
2022/06/11 10:23:50;;;;;;;1.60;1.50;;;;;;;;;;5009820;28;20194;-89
2022/06/11 10:26:22;;;;;;;1.77;1.67;;;;;;;;;;5009853;28;20225;-88
2022/06/11 10:28:57;;;;;;;1.93;1.83;;;;;;;;;;5010042;28;20207;-88
2022/06/11 10:31:27;;;;;;;2.10;1.60;;;;;;;;;;5009893;28;20190;-88
2022/06/11 10:33:58;;;;;;;1.73;1.63;;;;;;;;;;5009413;28;20198;-88
2022/06/11 10:36:28;;;;;;;1.40;1.40;;;;;;;;;;5009781;28;20192;-88
2022/06/11 10:38:59;;;;;;;1.70;1.60;;;;;;;;;;5009819;28;20208;-88
2022/06/11 10:41:30;;;;;;;1.67;1.57;;;;;;;;;;5009710;28;20226;-87
2022/06/11 10:44:20;;;;;;;1.77;1.67;;;;;;;;;;5009376;28;20248;-87
2022/06/11 10:46:48;;;;;;;2.30;2.10;;;;;;;;;;5009402;28;20199;-88
2022/06/11 10:49:17;;;;;;;1.60;1.50;;;;;;;;;;5009769;28;20567;-88
2022/06/11 10:51:48;;;;;;;1.97;1.87;;;;;;;;;;5009457;28;20203;-88
2022/06/11 10:54:18;;;;;;;2.27;2.10;;;;;;;;;;5009349;28;20212;-89
2022/06/11 10:56:49;;;;;;;2.57;2.27;;;;;;;;;;5009708;28;20199;-88
2022/06/11 10:59:24;;;;;;;2.23;2.03;;;;;;;;;;5009117;28;20191;-88
2022/06/11 11:01:56;;;;;;;1.87;1.67;;;;;;;;;;5009303;28;20207;-88
2022/06/11 11:04:54;;;;;;;2.10;2.00;;;;;;;;;;5009357;28;20219;-88
2022/06/11 11:07:24;;;;;;;2.13;2.03;;;;;;;;;;5008611;28;20283;-88
2022/06/11 11:09:52;;;;;;;1.77;1.67;;;;;;;;;;5009262;28;20188;-89
2022/06/11 11:12:23;;;;;;;2.17;2.07;;;;;;;;;;5009474;28;20207;-89
2022/06/11 11:15:00;;;;;;;2.03;1.93;;;;;;;;;;5009266;28;20184;-89
2022/06/11 11:17:32;;;;;;;2.27;2.07;;;;;;;;;;5009019;28;20186;-88
2022/06/11 11:23:02;;;;;;;2.30;2.10;;;;;;;;;;5010563;28;20245;-89
2022/06/11 11:25:33;;;;;;;2.27;2.17;;;;;;;;;;5012155;28;20184;-89
2022/06/11 11:28:01;;;;;;;2.13;2.03;;;;;;;;;;5012315;28;20223;-89
2022/06/11 11:30:34;;;;;;;2.40;2.30;;;;;;;;;;5012346;28;20206;-89
2022/06/11 11:33:30;;;;;;;2.80;2.13;;;;;;;;;;5012554;28;20206;-90
2022/06/11 11:36:11;;;;;;;2.50;2.30;;;;;;;;;;4978380;28;20207;-89
2022/06/11 11:38:38;;;;;;;2.53;2.33;;;;;;;;;;5012805;28;20215;-89
2022/06/11 11:41:06;;;;;;;2.50;2.30;;;;;;;;;;5012388;28;20207;-89
2022/06/11 11:43:36;;;;;;;3.10;2.90;;;;;;;;;;5012447;28;20285;-89
2022/06/11 11:46:08;;;;;;;7.20;6.50;;;;;;;;;;5012492;28;20236;-89
2022/06/11 11:48:37;;;;;;;3.20;3.00;;;;;;;;;;5011978;28;20260;-89
2022/06/11 11:51:07;;;;;;;3.33;3.03;;;;;;;;;;5012263;28;20234;-88
2022/06/11 11:53:37;;;;;;;2.70;2.50;;;;;;;;;;5012053;28;20217;-88
2022/06/11 11:56:06;;;;;;;2.83;2.70;;;;;;;;;;5012099;28;20740;-89
2022/06/11 11:58:35;;;;;;;4.20;3.90;;;;;;;;;;5012248;28;20648;-89
2022/06/11 12:01:08;;;;;;;2.50;2.40;;;;;;;;;;5012295;28;20580;-89
2022/06/11 12:03:38;;;;;;;3.50;2.67;;;;;;;;;;5012021;28;20709;-89
2022/06/11 12:06:06;;;;;;;2.90;2.70;;;;;;;;;;5012160;28;20195;-89
2022/06/11 12:08:38;;;;;;;2.63;2.43;;;;;;;;;;5011455;28;20322;-89
2022/06/11 12:11:06;;;;;;;3.63;3.33;;;;;;;;;;5011796;28;20241;-89
2022/06/11 12:13:45;;;;;;;2.40;2.30;;;;;;;;;;5011963;28;20209;-90
2022/06/11 12:16:23;;;;;;;3.23;2.93;;;;;;;;;;5012375;28;20631;-90
2022/06/11 12:18:53;;;;;;;2.30;2.20;;;;;;;;;;5011734;28;20194;-89
2022/06/11 12:21:24;;;;;;;2.70;2.60;;;;;;;;;;5011729;28;20207;-89
2022/06/11 12:23:58;;;;;;;2.60;2.40;;;;;;;;;;5011636;28;20255;-89
2022/06/11 12:26:27;;;;;;;2.30;2.20;;;;;;;;;;5011523;28;20270;-88
2022/06/11 12:29:00;;;;;;;2.20;2.10;;;;;;;;;;5011439;28;20231;-87
2022/06/11 12:31:30;;;;;;;2.07;1.90;;;;;;;;;;5011924;28;20183;-89
2022/06/11 12:33:57;;;;;;;2.20;2.00;;;;;;;;;;5011530;28;20206;-88
2022/06/11 12:36:39;;;;;;;2.67;2.50;;;;;;;;;;5011314;28;20244;-88
2022/06/11 12:39:12;;;;;;;2.77;2.67;;;;;;;;;;5011329;28;20686;-88
2022/06/11 12:41:45;;;;;;;4.27;3.97;;;;;;;;;;5011343;28;20194;-88
2022/06/11 12:44:37;;;;;;;2.90;2.70;;;;;;;;;;5011319;28;20265;-88
2022/06/11 12:47:19;;;;;;;2.33;2.17;;;;;;;;;;5011258;28;20197;-88
2022/06/11 12:49:52;;;;;;;2.30;2.20;;;;;;;;;;5011223;28;20229;-89
2022/06/11 12:52:24;;;;;;;8.03;7.47;;;;;;;;;;5011534;28;20547;-89
2022/06/11 12:55:24;;;;;;;5.97;5.43;;;;;;;;;;5011492;28;20194;-88
2022/06/11 12:57:56;;;;;;;2.40;2.30;;;;;;;;;;5009245;28;20197;-88
2022/06/11 13:00:41;;;;;;;2.00;1.90;;;;;;;;;;5011434;28;20779;-87
2022/06/11 13:03:27;;;;;;;2.90;2.70;;;;;;;;;;5011369;28;20189;-89
2022/06/11 13:06:02;;;;;;;6.47;5.80;;;;;;;;;;5011056;28;20201;-88
2022/06/11 13:08:40;;;;;;;8.00;7.27;;;;;;;;;;5010707;28;20257;-88
2022/06/11 13:11:16;;;;;;;4.07;3.63;;;;;;;;;;5010861;28;20191;-89
2022/06/11 13:14:11;;;;;;;3.27;2.97;;;;;;;;;;5010981;28;20198;-89
2022/06/11 13:16:43;;;;;;;2.93;2.63;;;;;;;;;;5018728;28;20683;-88
2022/06/11 13:19:25;;;;;;;2.43;2.30;;;;;;;;;;5011054;28;20222;-88
2022/06/11 13:21:55;;;;;;;4.27;3.10;;;;;;;;;;5010759;28;20189;-89
2022/06/11 13:24:27;;;;;;;4.10;3.80;;;;;;;;;;5010841;28;20240;-89
2022/06/11 13:27:01;;;;;;;3.30;3.10;;;;;;;;;;5010981;28;20648;-89
2022/06/11 13:29:45;;;;;;;2.53;2.30;;;;;;;;;;5010711;28;20753;-90
2022/06/11 13:32:19;;;;;;;2.70;2.50;;;;;;;;;;5010196;28;20192;-89
2022/06/11 13:35:13;;;;;;;3.07;2.80;;;;;;;;;;5010679;28;20195;-89
2022/06/11 13:37:51;;;;;;;5.37;4.93;;;;;;;;;;5010645;28;20289;-89
2022/06/11 13:40:26;;;;;;;6.13;5.63;;;;;;;;;;5010775;28;20188;-89
2022/06/11 13:43:01;;;;;;;3.70;3.40;;;;;;;;;;5010979;28;20541;-89
2022/06/11 13:45:39;;;;;;;11.27;10.17;;;;;;;;;;5009996;28;20299;-89
2022/06/11 13:48:19;;;;;;;3.07;2.80;;;;;;;;;;5010444;28;20254;-89
2022/06/11 13:50:59;;;;;;;3.17;2.70;;;;;;;;;;5010231;28;20198;-89
2022/06/11 13:56:27;;;;;;;2.90;2.70;;;;;;;;;;5010573;28;20186;-89
2022/06/11 13:59:13;;;;;;;2.67;2.47;;;;;;;;;;5010518;28;20179;-89
2022/06/11 14:01:59;;;;;;;4.53;3.33;;;;;;;;;;5010129;28;20195;-89
2022/06/11 14:04:35;;;;;;;23.33;18.53;;;;;;;;;;5010528;28;20183;-89
2022/06/11 14:07:08;;;;;;;63.03;50.07;;;;;;;;;;5010445;28;20198;-89
2022/06/11 14:12:47;;;;;;;3.73;3.37;;;;;;;;;;5010495;28;20203;-88
2022/06/11 14:15:39;;;;;;;8.50;7.70;;;;;;;;;;4996038;28;20199;-89
2022/06/11 14:18:40;;;;;;;4.97;4.57;;;;;;;;;;5009987;28;20184;-88
2022/06/11 14:21:25;;;;;;;2.90;2.70;;;;;;;;;;5009924;28;20207;-89
2022/06/11 14:23:54;;;;;;;2.50;2.40;;;;;;;;;;5009682;28;20199;-89
2022/06/11 14:26:53;;;;;;;2.43;2.23;;;;;;;;;;5011291;28;20291;-89
2022/06/11 14:29:23;;;;;;;1.97;1.87;;;;;;;;;;5029521;28;20258;-88
2022/06/11 14:31:53;;;;;;;3.73;2.33;;;;;;;;;;5029521;28;20269;-88
2022/06/11 14:34:22;;;;;;;2.50;2.37;;;;;;;;;;5029329;28;20203;-89
2022/06/11 14:37:05;;;;;;;2.10;1.90;;;;;;;;;;5029553;28;20234;-89
2022/06/11 14:39:36;;;;;;;2.70;2.50;;;;;;;;;;5029659;28;20183;-89
2022/06/11 14:42:19;;;;;;;2.30;2.20;;;;;;;;;;5029490;28;20203;-89
2022/06/11 14:45:27;;;;;;;5.37;3.40;;;;;;;;;;5029564;28;20198;-89
2022/06/11 14:47:57;;;;;;;3.93;2.70;;;;;;;;;;5029120;28;20206;-87
2022/06/11 14:51:09;;;;;;;4.60;2.43;;;;;;;;;;5029276;28;20206;-89
2022/06/11 14:53:41;;;;;;;2.63;2.43;;;;;;;;;;5070507;28;20201;-89
2022/06/11 14:56:20;;;;;;;2.00;1.90;;;;;;;;;;5033552;28;20568;-89
2022/06/11 14:59:25;;;;;;;6.37;4.53;;;;;;;;;;5032451;28;20183;-89
2022/06/11 15:02:23;;;;;;;3.00;2.80;;;;;;;;;;5009059;28;20223;-88
2022/06/11 15:05:00;;;;;;;2.90;2.70;;;;;;;;;;5049142;28;20224;-89
2022/06/11 15:07:46;;;;;;;2.23;1.80;;;;;;;;;;5032371;28;20220;-90
2022/06/11 15:10:20;;;;;;;1.80;1.70;;;;;;;;;;5032694;28;20257;-89
2022/06/11 15:13:22;;;;;;;2.20;2.00;;;;;;;;;;5032551;28;20189;-90
2022/06/11 15:15:52;;;;;;;2.00;1.90;;;;;;;;;;5032815;28;20534;-90
2022/06/11 15:18:23;;;;;;;1.83;1.73;;;;;;;;;;5033130;28;20190;-90
2022/06/11 15:20:53;;;;;;;1.87;1.77;;;;;;;;;;5032369;28;20286;-89
2022/06/11 15:23:32;;;;;;;2.60;2.00;;;;;;;;;;5032835;28;20200;-90
2022/06/11 15:26:03;;;;;;;2.17;1.97;;;;;;;;;;5032351;28;20251;-89
2022/06/11 15:28:32;;;;;;;2.27;2.07;;;;;;;;;;5032262;28;20213;-89
2022/06/11 15:31:06;;;;;;;2.37;2.27;;;;;;;;;;5032176;28;20254;-89